createdAt,value
2019-04-25T00:02:04.163Z,49.80
2019-04-25T00:04:33.381Z,50.10
2019-04-25T00:07:02.539Z,49.80
2019-04-25T00:09:35.680Z,50.20
2019-04-25T00:12:05.017Z,51.00
2019-04-25T00:14:34.175Z,50.30
2019-04-25T00:17:03.362Z,50.30
2019-04-25T00:19:32.885Z,50.30
2019-04-25T00:22:21.669Z,50.40
2019-04-25T00:25:15.973Z,50.40
2019-04-25T00:27:43.268Z,50.40
2019-04-25T00:30:11.506Z,50.40
2019-04-25T00:32:42.139Z,50.70
2019-04-25T00:35:11.830Z,50.60
2019-04-25T00:37:44.084Z,50.70
2019-04-25T00:40:13.465Z,50.80
2019-04-25T00:42:44.843Z,50.70
2019-04-25T00:45:14.255Z,50.70
2019-04-25T00:47:44.503Z,50.70
2019-04-25T00:50:14.255Z,50.70
2019-04-25T00:52:43.923Z,50.80
2019-04-25T00:55:25.870Z,50.80
2019-04-25T00:57:46.837Z,50.70
2019-04-25T01:00:35.112Z,50.80
2019-04-25T01:03:06.503Z,50.90
2019-04-25T01:05:35.782Z,50.90
2019-04-25T01:08:06.516Z,50.90
2019-04-25T01:10:35.733Z,51.60
2019-04-25T01:13:05.898Z,51.00
2019-04-25T01:15:35.118Z,51.00
2019-04-25T01:18:04.377Z,50.90
2019-04-25T01:20:34.460Z,49.40
2019-04-25T01:23:03.868Z,50.40
2019-04-25T01:25:40.698Z,51.60
2019-04-25T01:28:04.967Z,50.30
2019-04-25T01:30:34.140Z,51.10
2019-04-25T01:33:03.481Z,51.00
2019-04-25T01:35:39.487Z,51.70
2019-04-25T01:38:15.957Z,50.90
2019-04-25T01:40:58.835Z,51.00
2019-04-25T01:43:35.472Z,51.60
2019-04-25T01:46:05.381Z,51.60
2019-04-25T01:48:34.570Z,51.60
2019-04-25T01:51:04.550Z,51.70
2019-04-25T01:53:33.872Z,52.00
2019-04-25T01:56:07.622Z,51.40
2019-04-25T01:58:37.482Z,51.70
2019-04-25T02:01:06.781Z,51.90
2019-04-25T02:03:36.312Z,52.00
2019-04-25T02:06:05.860Z,51.40
2019-04-25T02:08:35.065Z,51.40
2019-04-25T02:11:24.018Z,51.50
2019-04-25T02:13:55.850Z,52.10
2019-04-25T02:16:26.515Z,51.80
2019-04-25T02:18:56.406Z,51.90
2019-04-25T02:21:25.610Z,52.10
2019-04-25T02:23:55.777Z,52.10
2019-04-25T02:26:26.012Z,52.20
2019-04-25T02:28:56.472Z,52.20
2019-04-25T02:31:26.463Z,51.80
2019-04-25T02:34:00.280Z,51.60
2019-04-25T02:36:27.775Z,51.90
2019-04-25T02:39:00.949Z,52.20
2019-04-25T02:41:28.042Z,52.10
2019-04-25T02:44:01.215Z,52.10
2019-04-25T02:46:41.959Z,51.70
2019-04-25T02:49:38.647Z,51.70
2019-04-25T02:52:11.170Z,52.40
2019-04-25T02:54:38.923Z,52.30
2019-04-25T02:57:08.367Z,51.80
2019-04-25T02:59:37.542Z,52.10
2019-04-25T03:02:09.107Z,52.10
2019-04-25T03:04:38.083Z,52.00
2019-04-25T03:07:10.808Z,52.20
2019-04-25T03:09:38.124Z,52.20
2019-04-25T03:12:08.148Z,51.70
2019-04-25T03:14:38.172Z,52.30
2019-04-25T03:17:09.734Z,51.80
2019-04-25T03:19:56.439Z,51.90
2019-04-25T03:22:28.060Z,52.20
2019-04-25T03:24:57.296Z,52.20
2019-04-25T03:27:26.462Z,51.90
2019-04-25T03:29:55.674Z,52.40
2019-04-25T03:32:28.397Z,52.10
2019-04-25T03:34:56.843Z,52.20
2019-04-25T03:37:26.325Z,51.90
2019-04-25T03:39:55.478Z,52.10
2019-04-25T03:42:24.955Z,52.20
2019-04-25T03:44:54.202Z,52.30
2019-04-25T03:47:23.622Z,52.20
2019-04-25T03:49:55.181Z,52.10
2019-04-25T03:52:23.951Z,51.90
2019-04-25T03:54:53.474Z,52.10
2019-04-25T03:57:23.321Z,52.10
2019-04-25T03:59:53.641Z,52.00
2019-04-25T04:02:25.690Z,52.20
2019-04-25T04:04:54.918Z,51.90
2019-04-25T04:07:24.943Z,52.20
2019-04-25T04:09:55.120Z,52.20
2019-04-25T04:12:25.229Z,52.00
2019-04-25T04:14:54.438Z,52.20
2019-04-25T04:17:34.782Z,52.00
2019-04-25T04:20:41.022Z,52.40
2019-04-25T04:23:27.502Z,52.60
2019-04-25T04:25:56.682Z,51.90
2019-04-25T04:28:26.658Z,52.10
2019-04-25T04:30:55.856Z,52.20
2019-04-25T04:33:31.742Z,52.10
2019-04-25T04:35:55.943Z,52.00
2019-04-25T04:38:25.139Z,52.00
2019-04-25T04:40:55.152Z,51.90
2019-04-25T04:43:25.623Z,51.70
2019-04-25T04:45:54.893Z,51.70
2019-04-25T04:48:24.144Z,51.60
2019-04-25T04:50:53.539Z,51.50
2019-04-25T04:53:23.532Z,51.50
2019-04-25T04:55:54.387Z,51.40
2019-04-25T04:58:25.151Z,51.50
2019-04-25T05:00:54.654Z,51.60
2019-04-25T05:03:39.623Z,51.70
2019-04-25T05:06:33.911Z,51.40
2019-04-25T05:09:11.867Z,51.50
2019-04-25T05:11:41.324Z,51.50
2019-04-25T05:14:11.727Z,51.30
2019-04-25T05:16:44.687Z,51.10
2019-04-25T05:19:15.310Z,51.30
2019-04-25T05:21:45.597Z,51.20
2019-04-25T05:24:16.066Z,51.20
2019-04-25T05:26:46.070Z,51.20
2019-04-25T05:29:19.805Z,51.10
2019-04-25T05:31:48.937Z,51.10
2019-04-25T05:34:19.620Z,51.10
2019-04-25T05:36:49.294Z,51.00
2019-04-25T05:39:19.446Z,51.00
2019-04-25T05:42:11.290Z,51.00
2019-04-25T05:44:40.479Z,51.00
2019-04-25T05:47:09.694Z,50.90
2019-04-25T05:49:38.890Z,50.90
2019-04-25T05:52:08.389Z,50.90
2019-04-25T05:54:37.571Z,50.70
2019-04-25T05:57:06.770Z,50.60
2019-04-25T05:59:35.976Z,50.50
2019-04-25T06:02:05.197Z,50.70
2019-04-25T06:04:34.390Z,50.30
2019-04-25T06:07:05.659Z,50.50
2019-04-25T06:09:54.728Z,50.50
2019-04-25T06:12:39.379Z,50.50
2019-04-25T06:15:08.872Z,50.00
2019-04-25T06:17:57.003Z,49.90
2019-04-25T06:20:29.298Z,50.10
2019-04-25T06:23:05.990Z,50.10
2019-04-25T06:25:39.626Z,50.00
2019-04-25T06:28:09.973Z,50.10
2019-04-25T06:30:39.185Z,49.20
2019-04-25T06:33:08.390Z,49.40
2019-04-25T06:35:37.712Z,50.00
2019-04-25T06:38:07.782Z,49.20
2019-04-25T06:40:40.941Z,49.40
2019-04-25T06:43:13.332Z,49.90
2019-04-25T06:46:02.006Z,50.00
2019-04-25T06:48:50.483Z,49.90
2019-04-25T06:51:22.409Z,50.20
2019-04-25T06:53:53.455Z,50.20
2019-04-25T06:56:24.926Z,50.00
2019-04-25T06:58:54.900Z,49.60
2019-04-25T07:01:26.150Z,49.70
2019-04-25T07:03:58.578Z,49.90
2019-04-25T07:06:29.150Z,50.00
2019-04-25T07:08:58.757Z,49.70
2019-04-25T07:11:28.579Z,49.90
2019-04-25T07:14:14.889Z,49.50
2019-04-25T07:16:44.120Z,49.40
2019-04-25T07:19:14.704Z,49.90
2019-04-25T07:21:45.515Z,48.30
2019-04-25T07:24:17.433Z,48.00
2019-04-25T07:27:07.633Z,47.80
2019-04-25T07:29:56.847Z,48.20
2019-04-25T07:32:44.969Z,48.40
2019-04-25T07:35:14.387Z,46.80
2019-04-25T07:37:44.128Z,47.80
2019-04-25T07:40:14.052Z,47.20
2019-04-25T07:42:43.897Z,47.40
2019-04-25T07:45:14.123Z,46.40
2019-04-25T07:47:44.339Z,47.20
2019-04-25T07:50:15.269Z,46.80
2019-04-25T07:52:44.691Z,46.80
2019-04-25T07:55:13.937Z,47.30
2019-04-25T07:57:46.062Z,46.10
2019-04-25T08:01:08.807Z,45.30
2019-04-25T08:03:40.953Z,45.70
2019-04-25T08:06:13.846Z,46.50
2019-04-25T08:08:43.661Z,46.10
2019-04-25T08:11:14.189Z,46.00
2019-04-25T08:14:05.525Z,45.80
2019-04-25T08:16:35.697Z,45.30
2019-04-25T08:19:05.583Z,44.10
2019-04-25T08:21:35.676Z,44.30
2019-04-25T08:24:06.091Z,45.10
2019-04-25T08:26:36.479Z,46.50
2019-04-25T08:29:06.703Z,47.00
2019-04-25T08:31:36.329Z,46.70
2019-04-25T08:34:06.586Z,47.20
2019-04-25T08:36:41.553Z,47.00
2019-04-25T08:39:14.369Z,47.10
2019-04-25T08:41:45.383Z,47.20
2019-04-25T08:44:14.356Z,46.80
2019-04-25T08:46:44.599Z,46.80
2019-04-25T08:49:27.897Z,46.70
2019-04-25T08:51:57.409Z,46.90
2019-04-25T08:54:40.728Z,46.90
2019-04-25T08:57:13.832Z,46.50
2019-04-25T08:59:58.361Z,46.60
2019-04-25T09:02:44.679Z,46.90
2019-04-25T09:05:24.192Z,45.20
2019-04-25T09:07:54.380Z,42.90
2019-04-25T09:10:23.829Z,42.20
2019-04-25T09:12:53.741Z,43.30
2019-04-25T09:15:24.191Z,42.30
2019-04-25T09:17:54.690Z,40.90
2019-04-25T09:20:24.401Z,42.20
2019-04-25T09:22:54.249Z,38.20
2019-04-25T09:25:24.021Z,37.50
2019-04-25T09:27:54.350Z,39.70
2019-04-25T09:30:33.962Z,38.30
2019-04-25T09:33:04.693Z,36.80
2019-04-25T09:35:34.006Z,38.00
2019-04-25T09:38:03.468Z,38.10
2019-04-25T09:40:34.200Z,37.10
2019-04-25T09:43:04.184Z,39.70
2019-04-25T09:45:47.348Z,37.70
2019-04-25T09:48:40.564Z,36.40
2019-04-25T09:51:35.881Z,38.30
2019-04-25T09:54:23.742Z,37.40
2019-04-25T09:56:56.428Z,39.40
2019-04-25T09:59:29.859Z,39.30
2019-04-25T10:01:57.590Z,38.60
2019-04-25T10:04:27.340Z,38.10
2019-04-25T10:06:56.694Z,38.10
2019-04-25T10:09:26.217Z,39.40
2019-04-25T10:11:55.374Z,40.00
2019-04-25T10:14:34.938Z,38.10
2019-04-25T10:17:04.804Z,40.00
2019-04-25T10:19:34.539Z,40.60
2019-04-25T10:22:04.780Z,35.40
2019-04-25T10:24:34.579Z,37.80
2019-04-25T10:27:04.513Z,38.30
2019-04-25T10:29:41.692Z,39.00
2019-04-25T10:32:04.565Z,37.20
2019-04-25T10:34:34.047Z,38.10
2019-04-25T10:37:03.543Z,37.20
2019-04-25T10:39:33.996Z,35.70
2019-04-25T10:42:03.664Z,35.00
2019-04-25T10:44:33.825Z,36.40
2019-04-25T10:47:03.511Z,35.70
2019-04-25T10:49:34.372Z,34.70
2019-04-25T10:52:03.610Z,34.70
2019-04-25T10:54:36.598Z,35.00
2019-04-25T10:57:06.595Z,34.10
2019-04-25T10:59:35.919Z,34.40
2019-04-25T11:02:05.739Z,35.10
2019-04-25T11:04:41.061Z,34.90
2019-04-25T11:07:11.021Z,35.10
2019-04-25T11:09:40.623Z,34.90
2019-04-25T11:12:10.925Z,34.70
2019-04-25T11:14:40.849Z,33.80
2019-04-25T11:17:10.121Z,33.30
2019-04-25T11:19:40.095Z,33.60
2019-04-25T11:22:10.244Z,33.70
2019-04-25T11:24:39.411Z,33.10
2019-04-25T11:27:08.669Z,33.70
2019-04-25T11:29:37.934Z,34.10
2019-04-25T11:32:08.059Z,34.20
2019-04-25T11:34:38.825Z,34.50
2019-04-25T11:37:08.385Z,34.10
2019-04-25T11:39:56.831Z,34.20
2019-04-25T11:42:26.037Z,33.60
2019-04-25T11:44:56.087Z,34.00
2019-04-25T11:47:25.381Z,34.80
2019-04-25T11:49:55.685Z,34.50
2019-04-25T11:52:29.586Z,34.10
2019-04-25T11:54:56.183Z,34.20
2019-04-25T11:57:25.664Z,33.50
2019-04-25T11:59:55.832Z,33.90
2019-04-25T12:02:28.924Z,34.60
2019-04-25T12:04:58.114Z,35.00
2019-04-25T12:07:27.320Z,34.90
2019-04-25T12:09:56.521Z,34.50
2019-04-25T12:12:25.639Z,34.70
2019-04-25T12:14:55.439Z,34.60
2019-04-25T12:17:24.647Z,35.30
2019-04-25T12:19:55.040Z,35.10
2019-04-25T12:22:24.819Z,35.50
2019-04-25T12:24:54.725Z,35.00
2019-04-25T12:27:25.209Z,34.30
2019-04-25T12:29:55.622Z,33.80
2019-04-25T12:32:26.273Z,33.60
2019-04-25T12:34:56.126Z,34.00
2019-04-25T12:37:25.604Z,33.20
2019-04-25T12:39:54.800Z,33.20
2019-04-25T12:42:24.365Z,33.40
2019-04-25T12:45:01.593Z,33.50
2019-04-25T12:47:32.259Z,33.90
2019-04-25T12:50:01.416Z,34.60
2019-04-25T12:52:30.651Z,34.50
2019-04-25T12:55:00.299Z,34.30
2019-04-25T12:57:29.809Z,34.20
2019-04-25T12:59:58.993Z,33.80
2019-04-25T13:02:28.320Z,34.90
2019-04-25T13:04:57.506Z,34.00
2019-04-25T13:07:26.717Z,34.00
2019-04-25T13:09:56.196Z,34.10
2019-04-25T13:12:25.388Z,34.60
2019-04-25T13:14:54.555Z,34.90
2019-04-25T13:17:25.056Z,34.90
2019-04-25T13:19:54.429Z,35.10
2019-04-25T13:22:23.968Z,34.60
2019-04-25T13:24:54.106Z,34.30
2019-04-25T13:27:35.597Z,34.00
2019-04-25T13:30:24.061Z,33.60
2019-04-25T13:33:04.531Z,33.20
2019-04-25T13:35:39.732Z,33.00
2019-04-25T13:38:08.951Z,32.80
2019-04-25T13:40:38.405Z,33.00
2019-04-25T13:43:07.761Z,33.50
2019-04-25T13:45:37.214Z,33.20
2019-04-25T13:48:06.709Z,33.50
2019-04-25T13:50:36.328Z,33.30
2019-04-25T13:53:05.826Z,33.20
2019-04-25T13:55:35.020Z,34.00
2019-04-25T13:58:04.390Z,33.60
2019-04-25T14:00:34.866Z,33.00
2019-04-25T14:03:05.332Z,33.10
2019-04-25T14:05:35.321Z,33.90
2019-04-25T14:08:05.174Z,34.00
2019-04-25T14:10:34.472Z,33.10
2019-04-25T14:13:03.593Z,32.90
2019-04-25T14:15:34.370Z,32.80
2019-04-25T14:18:28.838Z,33.10
2019-04-25T14:21:04.649Z,33.40
2019-04-25T14:23:34.517Z,33.70
2019-04-25T14:26:04.789Z,33.40
2019-04-25T14:28:35.236Z,33.40
2019-04-25T14:31:06.977Z,33.60
2019-04-25T14:33:36.143Z,34.30
2019-04-25T14:36:05.668Z,34.30
2019-04-25T14:38:35.485Z,34.30
2019-04-25T14:41:05.719Z,34.10
2019-04-25T14:43:36.978Z,34.40
2019-04-25T14:46:06.177Z,34.60
2019-04-25T14:48:35.710Z,34.70
2019-04-25T14:51:05.124Z,34.90
2019-04-25T14:53:36.336Z,34.80
2019-04-25T14:56:27.998Z,34.50
2019-04-25T14:58:57.879Z,34.60
2019-04-25T15:01:27.982Z,34.90
2019-04-25T15:03:57.397Z,34.80
2019-04-25T15:06:27.587Z,34.90
2019-04-25T15:08:56.926Z,35.20
2019-04-25T15:11:26.938Z,35.10
2019-04-25T15:13:56.737Z,35.00
2019-04-25T15:16:27.069Z,35.00
2019-04-25T15:18:56.276Z,35.10
2019-04-25T15:21:26.262Z,35.20
2019-04-25T15:24:00.222Z,35.10
2019-04-25T15:26:27.397Z,35.00
2019-04-25T15:28:56.580Z,35.10
2019-04-25T15:31:27.100Z,35.20
2019-04-25T15:33:56.989Z,35.30
2019-04-25T15:36:33.188Z,35.60
2019-04-25T15:39:22.065Z,36.00
2019-04-25T15:41:57.196Z,36.10
2019-04-25T15:44:38.706Z,36.00
2019-04-25T15:47:11.184Z,35.80
2019-04-25T15:49:40.750Z,36.10
2019-04-25T15:52:11.473Z,36.10
2019-04-25T15:54:40.702Z,36.00
2019-04-25T15:57:09.894Z,36.20
2019-04-25T15:59:39.087Z,36.70
2019-04-25T16:02:13.958Z,36.80
2019-04-25T16:04:43.174Z,36.50
2019-04-25T16:07:14.099Z,36.60
2019-04-25T16:09:43.398Z,36.00
2019-04-25T16:12:13.664Z,35.70
2019-04-25T16:14:43.150Z,35.20
2019-04-25T16:17:12.322Z,35.10
2019-04-25T16:19:42.120Z,35.50
2019-04-25T16:22:11.278Z,35.70
2019-04-25T16:24:41.666Z,35.60
2019-04-25T16:27:11.261Z,35.60
2019-04-25T16:29:40.706Z,35.80
2019-04-25T16:32:20.486Z,36.00
2019-04-25T16:34:45.608Z,36.30
2019-04-25T16:37:15.098Z,36.50
2019-04-25T16:39:44.326Z,36.70
2019-04-25T16:42:14.426Z,37.00
2019-04-25T16:44:43.583Z,37.00
2019-04-25T16:47:14.583Z,37.10
2019-04-25T16:49:43.828Z,37.20
2019-04-25T16:52:14.668Z,37.20
2019-04-25T16:54:43.953Z,37.20
2019-04-25T16:57:27.729Z,37.30
2019-04-25T16:59:56.941Z,37.30
2019-04-25T17:02:35.232Z,37.30
2019-04-25T17:05:01.239Z,37.30
2019-04-25T17:07:31.777Z,37.50
2019-04-25T17:10:00.962Z,37.60
2019-04-25T17:12:31.221Z,37.70
2019-04-25T17:15:07.756Z,37.70
2019-04-25T17:17:55.860Z,37.70
2019-04-25T17:20:28.006Z,37.70
2019-04-25T17:22:57.189Z,37.70
2019-04-25T17:25:26.877Z,37.60
2019-04-25T17:27:56.053Z,37.70
2019-04-25T17:30:27.225Z,37.70
2019-04-25T17:33:13.909Z,37.90
2019-04-25T17:36:01.095Z,38.10
2019-04-25T17:38:43.103Z,38.10
2019-04-25T17:41:12.334Z,38.30
2019-04-25T17:43:41.912Z,39.00
2019-04-25T17:46:12.768Z,38.30
2019-04-25T17:48:43.091Z,38.20
2019-04-25T17:51:12.479Z,38.30
2019-04-25T17:53:41.717Z,38.30
2019-04-25T17:56:15.204Z,38.50
2019-04-25T17:58:44.342Z,38.20
2019-04-25T18:01:16.581Z,38.00
2019-04-25T18:03:45.673Z,38.00
2019-04-25T18:06:14.913Z,38.20
2019-04-25T18:08:44.207Z,38.30
2019-04-25T18:11:13.418Z,38.40
2019-04-25T18:13:42.629Z,38.30
2019-04-25T18:16:17.961Z,38.40
2019-04-25T18:19:13.478Z,38.40
2019-04-25T18:21:45.053Z,38.40
2019-04-25T18:24:24.191Z,39.00
2019-04-25T18:27:01.196Z,39.10
2019-04-25T18:29:30.645Z,39.30
2019-04-25T18:32:01.107Z,39.40
2019-04-25T18:34:38.513Z,39.70
2019-04-25T18:37:29.825Z,39.90
2019-04-25T18:40:30.703Z,39.70
2019-04-25T18:43:17.982Z,39.90
2019-04-25T18:45:50.195Z,39.60
2019-04-25T18:48:20.764Z,39.70
2019-04-25T18:50:50.286Z,39.70
2019-04-25T18:53:47.678Z,39.80
2019-04-25T18:56:42.006Z,39.80
2019-04-25T18:59:42.621Z,39.80
2019-04-25T19:02:33.558Z,39.90
2019-04-25T19:05:20.480Z,40.00
2019-04-25T19:07:52.518Z,40.20
2019-04-25T19:10:22.246Z,40.20
2019-04-25T19:12:51.977Z,40.30
2019-04-25T19:15:23.276Z,40.40
2019-04-25T19:18:04.966Z,40.40
2019-04-25T19:20:35.287Z,40.40
2019-04-25T19:23:05.744Z,40.50
2019-04-25T19:25:35.219Z,40.60
2019-04-25T19:28:04.674Z,40.70
2019-04-25T19:30:34.973Z,40.70
2019-04-25T19:33:07.192Z,41.40
2019-04-25T19:35:37.044Z,40.80
2019-04-25T19:38:06.281Z,41.00
2019-04-25T19:40:50.065Z,41.00
2019-04-25T19:43:33.002Z,41.20
2019-04-25T19:46:02.203Z,44.00
2019-04-25T19:48:31.746Z,42.20
2019-04-25T19:51:02.755Z,41.90
2019-04-25T19:53:32.336Z,42.00
2019-04-25T19:56:02.490Z,42.00
2019-04-25T19:58:33.836Z,41.80
2019-04-25T20:01:03.511Z,41.60
2019-04-25T20:03:53.406Z,41.80
2019-04-25T20:06:22.914Z,41.80
2019-04-25T20:08:58.705Z,41.80
2019-04-25T20:11:35.408Z,41.90
2019-04-25T20:14:06.802Z,41.90
2019-04-25T20:16:43.411Z,41.90
2019-04-25T20:19:13.275Z,42.10
2019-04-25T20:21:43.701Z,42.10
2019-04-25T20:24:13.258Z,42.10
2019-04-25T20:26:42.480Z,42.10
2019-04-25T20:29:11.706Z,42.10
2019-04-25T20:31:41.601Z,42.10
2019-04-25T20:34:11.172Z,42.10
2019-04-25T20:36:45.720Z,42.10
2019-04-25T20:39:14.982Z,42.20
2019-04-25T20:41:44.256Z,42.20
2019-04-25T20:44:14.076Z,42.10
2019-04-25T20:46:46.609Z,42.20
2019-04-25T20:49:29.300Z,42.20
2019-04-25T20:51:58.839Z,42.20
2019-04-25T20:54:28.445Z,42.10
2019-04-25T20:56:59.577Z,42.20
2019-04-25T20:59:29.116Z,42.30
2019-04-25T21:01:59.078Z,42.30
2019-04-25T21:04:41.926Z,42.20
2019-04-25T21:07:13.303Z,42.20
2019-04-25T21:09:42.880Z,42.20
2019-04-25T21:12:12.916Z,42.20
2019-04-25T21:15:07.587Z,42.40
2019-04-25T21:17:54.802Z,42.50
2019-04-25T21:20:25.798Z,42.60
2019-04-25T21:22:55.856Z,42.70
2019-04-25T21:25:25.626Z,42.70
2019-04-25T21:27:54.887Z,42.70
2019-04-25T21:30:24.070Z,42.70
2019-04-25T21:32:55.247Z,42.80
2019-04-25T21:35:25.129Z,42.90
2019-04-25T21:37:55.407Z,43.00
2019-04-25T21:40:59.876Z,43.00
2019-04-25T21:43:31.801Z,43.10
2019-04-25T21:46:01.589Z,43.10
2019-04-25T21:48:32.424Z,43.10
2019-04-25T21:51:21.431Z,43.30
2019-04-25T21:53:50.805Z,43.40
2019-04-25T21:56:21.901Z,44.10
2019-04-25T21:58:51.102Z,43.40
2019-04-25T22:01:21.548Z,44.30
2019-04-25T22:03:50.789Z,43.20
2019-04-25T22:06:20.862Z,42.90
2019-04-25T22:08:50.394Z,43.00
2019-04-25T22:11:20.796Z,43.80
2019-04-25T22:13:50.475Z,46.20
2019-04-25T22:16:20.905Z,44.80
2019-04-25T22:18:50.393Z,43.70
2019-04-25T22:21:20.304Z,44.20
2019-04-25T22:23:50.168Z,44.10
2019-04-25T22:26:19.485Z,44.30
2019-04-25T22:28:48.770Z,44.40
2019-04-25T22:31:23.319Z,44.70
2019-04-25T22:34:10.178Z,44.50
2019-04-25T22:36:40.634Z,44.80
2019-04-25T22:39:12.961Z,44.40
2019-04-25T22:41:46.542Z,44.60
2019-04-25T22:44:17.344Z,44.50
2019-04-25T22:46:46.950Z,44.50
2019-04-25T22:49:16.158Z,44.40
2019-04-25T22:51:45.388Z,44.60
2019-04-25T22:54:15.765Z,44.80
2019-04-25T22:56:45.014Z,44.70
2019-04-25T22:59:14.742Z,44.80
2019-04-25T23:02:02.476Z,44.90
2019-04-25T23:04:44.178Z,45.00
2019-04-25T23:07:13.462Z,45.30
2019-04-25T23:09:42.662Z,45.40
2019-04-25T23:12:14.115Z,45.50
2019-04-25T23:14:43.749Z,45.80
2019-04-25T23:17:13.820Z,45.40
2019-04-25T23:19:44.270Z,45.40
2019-04-25T23:22:13.628Z,45.30
2019-04-25T23:24:52.823Z,45.70
2019-04-25T23:27:49.717Z,45.90
2019-04-25T23:30:20.806Z,46.10
2019-04-25T23:32:50.342Z,45.80
2019-04-25T23:35:29.363Z,45.30
2019-04-25T23:37:52.346Z,46.20
2019-04-25T23:40:22.182Z,46.00
2019-04-25T23:42:51.559Z,45.90
2019-04-25T23:45:21.035Z,46.20
2019-04-25T23:47:51.001Z,46.00
2019-04-25T23:50:20.570Z,46.50
2019-04-25T23:52:49.818Z,46.60
2019-04-25T23:55:19.478Z,46.20
2019-04-25T23:57:48.666Z,46.20
